Bei Facebook empfehlenBei Twitter postenGoogle plusPinterest

Das Wetter im Erzgebirge am 31.08.2017

Wetter und Klima am 31.08.2017 Holzhau im Erzgebirge (630m ü.NN)
Letzte gemessene Temperatur und Uhrzeit der Messung23:45:00 Uhr12.40 °C
Temperatur (Maximum / Höchstwert) und Uhrzeit der Messung11:30:00 Uhr24.40 °C
Temperatur (Minimum / Tiefstwert) und Uhrzeit der Messung23:45:0012.40 °C
Errechneter Absolutwert der Temperaturschwankungen zwischen Tmin und Tmax des Tages12.00 K
Errechnete Tagesmitteltemperatur17.20625 °C
Gesamt - Niederschlag des Tages (in flüssiger Form)13.47 Liter / m²
Luftdruck (Maximum / Höchstwert) und Zeitpunkt der Messung23:30:00 Uhr1017.00 hPa
Luftdruck (Minimum / Tiefstwert) und Zeitpunkt der Messung00:45:00 Uhr1008.50 hPa
Errechneter Absolutwert der Luftdruckschwankungen des Tages8.50 hPa
Höchste gemessene Windgeschwindigkeit und Uhrzeit der Messung09:15:00 Uhr660.96 km/h
Errechnete Windhäufigkeit in Relation zu den Messwerten des Tages4.16667 %
Niedrigste Windkühle (Windchill) und Zeitpunkt der Messung23:45:00 Uhr12.40 °C
Taupunkt (Maximum / Höchstwert) und Uhrzeit der Messung11:15:00 Uhr17.80 °C
Taupunkt (Minimum / Tiefstwert) und Uhrzeit der Messung02:00:0010.40 °C
Anzahl der automatisch eingelesenen Messwerte 96

Detaillierte Wetter- und Klima- Messwerte für den 31.08.2017 in Holzhau im Erzgebirge (630m ü.NN)
ZeitTemperaturLuftdruckRel. LuftfeuchteWindWindrichtungWindchillTaupunktNiederschlag l/m²
23:45:0012.40 °C1016.60 hPa94.00 %11.50 °C13.47
23:30:0012.40 °C1017.00 hPa94.00 %11.50 °C12.95
23:15:0012.40 °C1016.90 hPa94.00 %11.50 °C12.43
23:00:0012.40 °C1016.80 hPa94.00 %11.50 °C12.43
22:45:0012.40 °C1016.30 hPa94.00 %11.50 °C12.43
22:30:0012.40 °C1016.50 hPa94.00 %11.50 °C11.91
22:15:0012.40 °C1016.50 hPa94.00 %11.50 °C11.91
22:00:0012.40 °C1016.30 hPa94.00 %11.50 °C11.91
21:45:0012.40 °C1016.40 hPa94.00 %11.50 °C11.91
21:30:0012.60 °C1016.30 hPa94.00 %11.70 °C11.91
21:15:0012.90 °C1015.90 hPa94.00 %12.00 °C11.91
21:00:0013.10 °C1016.10 hPa94.00 %12.20 °C11.39
20:45:0013.50 °C1016.00 hPa94.00 %12.60 °C10.88
20:30:0014.00 °C1015.90 hPa94.00 %13.10 °C10.88
20:15:0014.10 °C1015.80 hPa94.00 %13.10 °C9.84
20:00:0014.30 °C1015.30 hPa94.00 %13.30 °C9.32
19:45:0014.60 °C1014.90 hPa94.00 %13.60 °C9.32
19:30:0014.90 °C1014.80 hPa94.00 %13.90 °C8.80
19:15:0015.10 °C1014.30 hPa94.00 %14.10 °C8.29
19:00:0015.10 °C1014.20 hPa93.00 %14.00 °C7.77
18:45:0015.20 °C1013.80 hPa93.00 %14.10 °C7.77
18:30:0015.30 °C1013.80 hPa92.00 %14.00 °C7.77
18:15:0015.60 °C1013.80 hPa92.00 %14.30 °C7.77
18:00:0016.40 °C1013.40 hPa92.00 %27.36 km/hNW16.60 °C15.10 °C7.77
17:45:0016.90 °C1013.80 hPa92.00 %15.60 °C7.77
17:30:0017.20 °C1013.00 hPa92.00 %15.90 °C7.77
17:15:0017.30 °C1013.30 hPa93.00 %16.20 °C7.77
17:00:0017.10 °C1013.60 hPa93.00 %16.00 °C7.25
16:45:0017.10 °C1013.50 hPa92.00 %15.80 °C7.25
16:30:0017.20 °C1013.60 hPa92.00 %15.90 °C6.73
16:15:0017.30 °C1013.30 hPa91.00 %15.80 °C6.21
16:00:0017.60 °C1013.00 hPa91.00 %16.10 °C5.70
15:45:0017.70 °C1012.90 hPa91.00 %16.20 °C5.70
15:30:0017.60 °C1012.70 hPa91.00 %16.10 °C5.70
15:15:0017.40 °C1012.30 hPa90.00 %15.70 °C5.70
15:00:0017.50 °C1012.20 hPa90.00 %15.80 °C5.18
14:45:0017.50 °C1012.30 hPa89.00 %15.70 °C5.18
14:30:0017.50 °C1012.40 hPa89.00 %15.70 °C4.66
14:15:0017.80 °C1012.90 hPa88.00 %15.80 °C4.14
14:00:0018.30 °C1012.70 hPa87.00 %16.10 °C3.62
13:45:0018.80 °C1012.60 hPa87.00 %16.60 °C3.11
13:30:0019.40 °C1012.30 hPa85.00 %16.80 °C3.11
13:15:0019.30 °C1012.40 hPa86.00 %16.90 °C3.11
13:00:0019.20 °C1012.40 hPa86.00 %16.80 °C3.11
12:45:0019.10 °C1012.10 hPa85.00 %16.50 °C3.11
12:30:0019.60 °C1012.20 hPa83.00 %16.60 °C2.59
12:15:0020.30 °C1012.30 hPa81.00 %16.90 °C2.59
12:00:0020.70 °C1012.20 hPa77.00 %16.50 °C2.59
11:45:0022.90 °C1011.80 hPa68.00 %16.70 °C2.07
11:30:0024.40 °C1011.10 hPa65.00 %23.40 km/hNW26.00 °C17.40 °C2.07
11:15:0024.30 °C1010.80 hPa67.00 %17.80 °C2.07
11:00:0023.60 °C1010.70 hPa68.00 %17.30 °C2.07
10:45:0023.20 °C1010.60 hPa69.00 %17.20 °C2.07
10:30:0023.00 °C1010.30 hPa71.00 %5.04 km/hSSW23.00 °C17.50 °C2.07
10:15:0022.60 °C1009.80 hPa73.00 %17.50 °C2.07
10:00:0022.10 °C1009.50 hPa76.00 %17.70 °C2.07
09:45:0021.50 °C1009.60 hPa79.00 %17.70 °C2.07
09:30:0020.70 °C1009.50 hPa83.00 %17.70 °C2.07
09:15:0019.80 °C1009.50 hPa86.00 %660.96 km/hN17.30 °C17.40 °C2.07
09:00:0018.90 °C1009.70 hPa88.00 %16.90 °C2.07
08:45:0018.10 °C1009.80 hPa89.00 %16.30 °C2.07
08:30:0017.90 °C1009.80 hPa90.00 %16.20 °C2.07
08:15:0017.60 °C1009.80 hPa92.00 %16.30 °C2.07
08:00:0016.90 °C1009.60 hPa91.00 %15.40 °C2.07
07:45:0016.90 °C1009.70 hPa91.00 %15.40 °C2.07
07:30:0016.60 °C1009.80 hPa91.00 %15.10 °C2.07
07:15:0016.20 °C1009.80 hPa91.00 %14.70 °C2.07
07:00:0016.10 °C1009.70 hPa91.00 %14.60 °C2.07
06:45:0015.90 °C1009.90 hPa90.00 %14.30 °C2.07
06:30:0016.00 °C1009.90 hPa90.00 %14.40 °C2.07
06:15:0016.10 °C1009.50 hPa90.00 %14.50 °C2.07
06:00:0016.20 °C1009.50 hPa90.00 %14.60 °C2.07
05:45:0016.30 °C1009.60 hPa89.00 %14.50 °C2.07
05:30:0016.30 °C1009.70 hPa89.00 %14.50 °C1.55
05:15:0016.30 °C1010.20 hPa88.00 %14.30 °C1.03
05:00:0016.30 °C1010.30 hPa87.00 %14.10 °C1.03
04:45:0016.50 °C1009.80 hPa85.00 %14.00 °C1.03
04:30:0016.90 °C1010.70 hPa83.00 %14.00 °C0.52
04:15:0017.30 °C1010.80 hPa80.00 %13.80 °C 
04:00:0018.10 °C1011.10 hPa76.00 %13.80 °C 
03:45:0019.00 °C1011.20 hPa74.00 %14.30 °C 
03:30:0019.10 °C1011.20 hPa70.00 %13.50 °C 
03:15:0017.80 °C1011.00 hPa66.00 %11.40 °C 
03:00:0017.80 °C1010.40 hPa66.00 %11.40 °C 
02:45:0017.40 °C1009.50 hPa67.00 %11.20 °C 
02:30:0016.70 °C1009.00 hPa68.00 %10.80 °C 
02:15:0016.20 °C1009.10 hPa69.00 %10.50 °C 
02:00:0016.80 °C1009.00 hPa66.00 %10.40 °C 
01:45:0017.30 °C1008.80 hPa64.00 %10.40 °C 
01:30:0017.60 °C1009.00 hPa63.00 %10.50 °C 
01:15:0017.90 °C1008.80 hPa62.00 %10.50 °C 
01:00:0018.10 °C1008.60 hPa61.00 %10.50 °C 
00:45:0018.40 °C1008.50 hPa61.00 %10.70 °C 
00:30:0018.60 °C1008.70 hPa60.00 %10.70 °C 
00:15:0018.90 °C1008.80 hPa59.00 %10.70 °C 
00:00:0019.00 °C1009.10 hPa59.00 %10.80 °C 

Permanenter Link zu dieser Seite: Wetter im Erzgebirge am 31.08.2017
Performance-Info: Die Erstellung der Seite / Statistik(en) / Tabelle(n) erforderte 5 Datenbankserver-Abfrage(n) und dauerte 102 Millisekunden. (Dieser Messwert ist von der Gesamt-Auslastung des Servers abhängig.)
Erzgebirge - Wetter | Erzgebirge - Wetter (Mobilgeräte) | Komplette Klimadatenbank